Penticton, British Columbia

4:50 PM PDT on June 26, 2017 (GMT -0700)
Penticton | | Change Station

Elev 1129 ft 49.47 °N, 119.60 °W | Updated 1 hour ago

Overcast
Overcast
84 °F
Feels Like 83 °F
N
13
Wind Variable Wind from North

Today
High -- | Low -- °F
--% Chance of Precip.
Yesterday
High -- | Low -- °F
Precip. -- in
Pressure 29.68 in
Visibility 15.0 miles
Clouds Scattered Clouds 8000 ft
Mostly Cloudy 15000 ft
Overcast 23000 ft
Heat Index 83 °F
Dew Point 54 °F
Humidity 35%
Rainfall 0.00 in
Snow Depth Not available.
4:53 AM 9:09 PM
Waxing Crescent, 12% visible
METAR CYYF 262200Z 35011KT 340V040 15SM SCT080 BKN150 OVC230 29/12 A2969 RMK AC3AC3CI2 ACC SLP048 DENSITY ALT 3300FT
Pressure 29.68 in
Visibility 15.0 miles
Clouds Scattered Clouds 8000 ft
Mostly Cloudy 15000 ft
Overcast 23000 ft
Heat Index 83 °F
Dew Point 54 °F
Humidity 35%
Rainfall 0.00 in
Snow Depth Not available.
4:53 AM 9:09 PM
Waxing Crescent, 12% visible
METAR CYYF 262200Z 35011KT 340V040 15SM SCT080 BKN150 OVC230 29/12 A2969 RMK AC3AC3CI2 ACC SLP048 DENSITY ALT 3300FT

Get Severe Weather Alerts

Thanks for signing up!

Be on the lookout for a verification email in your inbox.

You'll start receiving the daily forecast at 6 AM.

×

10-Day Weather Forecast

Almanac

Astronomy

Jun. 26, 2017 Rise Set
Actual Time
Civil Twilight
Nautical Twilight
Astronomical Twilight
Moon
Length of Visible Light
Length of Day
Tomorrow will be .
, % of the Moon is Illuminated

Today's Extremes

Country Highs Country Lows

Community

WunderPhotos

Category 6

Welcome to Category 6. This is the collective home for Weather Underground's featured writeups by Dr. Jeff Masters (right), Bob Henson (left), Chris Burt, and other regular contributors.

Nearby

Air Quality

  Air Quality AQ Index Pollutant
Not available.

Snow Depth

Station Depth Elevation

Earthquake Activity

City Distance Mag. Time & Date
Minimum magnitude displayed is 2.5.

Coastal Water Temperatures

Place Temperature

Stations

Nearby Weather Stations

Station Location Temp. Windchill Dew Point Humidity Wind Precip. Elev Updated Type
                   

Watches & Warnings

There are currently no watches in effect.